Time;durP1;ratioP1;P1;durP2;ratioP2;P2;SDS_P1;SDS_P2;PMS_P1;PMS_P2;Temp;Humidity;BMP_temperature;BMP_pressure;BME280_temperature;BME280_humidity;BME280_pressure;Samples;Min_cycle;Max_cycle;Signal;HPM_P1;HPM_P2
2023/08/07 06:01:33;;;;;;;206.07;12.82;;;;;;;;;;5362457;23;20075;-83
2023/08/07 06:03:59;;;;;;;241.63;13.32;;;;;;;;;;4934562;29;20043;-83
2023/08/07 06:06:25;;;;;;;302.15;15.07;;;;;;;;;;4931501;29;20119;-82
2023/08/07 06:08:51;;;;;;;393.50;15.75;;;;;;;;;;4916422;29;20505;-82
2023/08/07 06:11:17;;;;;;;245.02;15.02;;;;;;;;;;4916291;29;20127;-83
2023/08/07 06:13:42;;;;;;;197.98;13.23;;;;;;;;;;4917754;29;20517;-83
2023/08/07 06:16:08;;;;;;;102.07;11.23;;;;;;;;;;4924442;29;20051;-82
2023/08/07 06:18:34;;;;;;;119.32;10.70;;;;;;;;;;4916293;29;20126;-84
2023/08/07 06:20:59;;;;;;;145.02;11.55;;;;;;;;;;4915518;29;20062;-83
2023/08/07 06:23:24;;;;;;;111.00;12.40;;;;;;;;;;4915122;29;20055;-83
2023/08/07 06:25:50;;;;;;;133.70;12.65;;;;;;;;;;4919255;29;20040;-82
2023/08/07 06:28:15;;;;;;;119.32;11.70;;;;;;;;;;4916509;29;20044;-82
2023/08/07 06:30:41;;;;;;;56.97;9.75;;;;;;;;;;4915145;29;20044;-83
2023/08/07 06:33:06;;;;;;;108.70;10.80;;;;;;;;;;4927018;29;20047;-82
2023/08/07 06:35:37;;;;;;;94.28;10.85;;;;;;;;;;4927187;29;20108;-82
2023/08/07 06:38:02;;;;;;;131.23;10.73;;;;;;;;;;4916142;29;20052;-80
2023/08/07 06:40:28;;;;;;;104.18;9.82;;;;;;;;;;4933485;29;20118;-80
2023/08/07 06:42:54;;;;;;;154.07;10.55;;;;;;;;;;4934259;29;20048;-83
2023/08/07 06:45:19;;;;;;;86.22;9.55;;;;;;;;;;4932394;29;20059;-80
2023/08/07 06:47:45;;;;;;;82.72;8.93;;;;;;;;;;4934157;29;20067;-83
2023/08/07 06:50:10;;;;;;;102.38;10.07;;;;;;;;;;4932716;29;20487;-83
2023/08/07 06:52:37;;;;;;;38.28;8.65;;;;;;;;;;4934048;29;20040;-82
2023/08/07 06:55:03;;;;;;;18.80;7.78;;;;;;;;;;4932261;29;20122;-83
2023/08/07 06:57:29;;;;;;;52.03;7.32;;;;;;;;;;4930846;29;20127;-82
2023/08/07 06:59:54;;;;;;;45.17;7.57;;;;;;;;;;4923432;29;20039;-82
2023/08/07 07:02:20;;;;;;;58.33;8.63;;;;;;;;;;4932703;29;20179;-82
2023/08/07 07:04:45;;;;;;;277.65;12.00;;;;;;;;;;4935760;29;20047;-83
2023/08/07 07:07:10;;;;;;;62.67;8.00;;;;;;;;;;4952040;29;20357;-82
2023/08/07 07:09:36;;;;;;;79.53;8.40;;;;;;;;;;4940842;29;20047;-82
2023/08/07 07:12:01;;;;;;;141.13;10.57;;;;;;;;;;4933519;29;20500;-81
2023/08/07 07:14:27;;;;;;;98.07;9.85;;;;;;;;;;4933401;29;20047;-82
2023/08/07 07:16:52;;;;;;;57.88;8.25;;;;;;;;;;4933647;29;20039;-83
2023/08/07 07:19:18;;;;;;;119.20;9.13;;;;;;;;;;4933829;29;20135;-83
2023/08/07 07:21:44;;;;;;;65.85;8.45;;;;;;;;;;4933897;29;20036;-82
2023/08/07 07:24:09;;;;;;;65.88;8.05;;;;;;;;;;4933185;29;20508;-83
2023/08/07 07:26:35;;;;;;;46.80;7.90;;;;;;;;;;4933565;29;20130;-82
2023/08/07 07:29:00;;;;;;;42.25;8.55;;;;;;;;;;4938239;29;20428;-82
2023/08/07 07:31:26;;;;;;;152.55;10.45;;;;;;;;;;4952452;29;20093;-82
2023/08/07 07:33:51;;;;;;;43.20;8.57;;;;;;;;;;4949980;29;20047;-82
2023/08/07 07:36:18;;;;;;;29.48;8.10;;;;;;;;;;4932947;29;20050;-82
2023/08/07 07:38:47;;;;;;;29.35;7.95;;;;;;;;;;4937021;29;20122;-79
2023/08/07 07:41:13;;;;;;;63.10;8.88;;;;;;;;;;4951676;29;20504;-84
2023/08/07 07:43:39;;;;;;;34.35;7.80;;;;;;;;;;4952529;29;20043;-81
2023/08/07 07:46:04;;;;;;;27.08;8.07;;;;;;;;;;4940772;29;20040;-80
2023/08/07 07:48:30;;;;;;;12.13;7.35;;;;;;;;;;4947100;29;20063;-81
2023/08/07 07:51:00;;;;;;;15.00;7.13;;;;;;;;;;4952195;29;20123;-81
2023/08/07 07:53:25;;;;;;;10.88;7.15;;;;;;;;;;4934964;29;20114;-81
2023/08/07 07:55:51;;;;;;;12.55;7.43;;;;;;;;;;4934926;29;20039;-82
2023/08/07 07:58:16;;;;;;;12.70;7.07;;;;;;;;;;4944283;29;20515;-80
2023/08/07 08:00:42;;;;;;;12.57;6.70;;;;;;;;;;4944469;29;20619;-80
2023/08/07 08:03:08;;;;;;;10.77;5.72;;;;;;;;;;4933072;29;20047;-80
2023/08/07 08:05:34;;;;;;;8.88;5.25;;;;;;;;;;4951793;28;20039;-79
2023/08/07 08:08:01;;;;;;;10.32;5.95;;;;;;;;;;4955785;29;20065;-82
2023/08/07 08:10:26;;;;;;;11.10;5.75;;;;;;;;;;4955211;29;20047;-81
2023/08/07 08:12:52;;;;;;;12.43;6.47;;;;;;;;;;4955707;29;20475;-81
2023/08/07 08:15:17;;;;;;;7.40;5.65;;;;;;;;;;4954542;29;20054;-81
2023/08/07 08:17:43;;;;;;;11.20;5.45;;;;;;;;;;4938166;29;20074;-80
2023/08/07 08:20:09;;;;;;;9.93;5.47;;;;;;;;;;4955273;29;20043;-81
2023/08/07 08:22:34;;;;;;;9.07;5.40;;;;;;;;;;4955163;29;20047;-81
2023/08/07 08:25:00;;;;;;;10.05;5.18;;;;;;;;;;4954744;29;20048;-81
2023/08/07 08:27:25;;;;;;;7.60;5.13;;;;;;;;;;4955084;29;20039;-82
2023/08/07 08:29:51;;;;;;;10.82;4.32;;;;;;;;;;4954762;29;20407;-81
2023/08/07 08:32:16;;;;;;;7.20;4.45;;;;;;;;;;4954254;29;20082;-81
2023/08/07 08:34:42;;;;;;;8.32;3.38;;;;;;;;;;4954713;29;20496;-80
2023/08/07 08:37:07;;;;;;;11.15;4.40;;;;;;;;;;4952025;29;20075;-81
2023/08/07 08:39:33;;;;;;;10.45;4.55;;;;;;;;;;4937430;29;20098;-81
2023/08/07 08:41:59;;;;;;;8.82;4.00;;;;;;;;;;4943106;29;20322;-80
2023/08/07 08:44:26;;;;;;;9.77;3.80;;;;;;;;;;4946465;29;20082;-82
2023/08/07 08:46:54;;;;;;;8.70;3.83;;;;;;;;;;4945787;29;20156;-81
2023/08/07 08:49:27;;;;;;;6.65;3.70;;;;;;;;;;4953341;29;20052;-83
2023/08/07 08:51:53;;;;;;;6.63;3.60;;;;;;;;;;4945765;29;20046;-80
2023/08/07 08:54:19;;;;;;;7.00;3.47;;;;;;;;;;4943869;29;20051;-80
2023/08/07 08:56:45;;;;;;;7.30;2.60;;;;;;;;;;4940872;29;20065;-80
2023/08/07 08:59:10;;;;;;;10.18;3.08;;;;;;;;;;4938354;29;20507;-80
2023/08/07 09:01:37;;;;;;;6.18;2.53;;;;;;;;;;4954655;29;20050;-80
2023/08/07 09:04:04;;;;;;;10.00;3.00;;;;;;;;;;4943514;29;20465;-81
2023/08/07 09:06:31;;;;;;;6.20;2.17;;;;;;;;;;4940291;29;20106;-81
2023/08/07 09:08:58;;;;;;;6.90;2.10;;;;;;;;;;4942184;29;20397;-81
2023/08/07 09:11:24;;;;;;;8.15;2.20;;;;;;;;;;4951101;29;20134;-81
2023/08/07 09:13:49;;;;;;;7.93;2.05;;;;;;;;;;4949426;29;20523;-80
2023/08/07 09:16:16;;;;;;;6.80;2.35;;;;;;;;;;4953454;29;20526;-81
2023/08/07 09:18:42;;;;;;;6.05;2.47;;;;;;;;;;4944108;29;20039;-81
2023/08/07 09:21:07;;;;;;;6.95;2.30;;;;;;;;;;4937826;29;20464;-81
2023/08/07 09:23:33;;;;;;;9.45;1.70;;;;;;;;;;4946645;29;20051;-80
2023/08/07 09:26:00;;;;;;;6.07;1.67;;;;;;;;;;4952477;29;20463;-81
2023/08/07 09:28:26;;;;;;;8.05;1.52;;;;;;;;;;4939387;29;20056;-80
2023/08/07 09:30:52;;;;;;;6.18;1.88;;;;;;;;;;4949894;29;20049;-83
2023/08/07 09:33:26;;;;;;;8.13;2.00;;;;;;;;;;4934820;29;20439;-84
2023/08/07 09:35:53;;;;;;;6.95;1.88;;;;;;;;;;4952606;29;20415;-83
2023/08/07 09:38:18;;;;;;;5.25;1.30;;;;;;;;;;4935461;29;20099;-83
2023/08/07 09:40:44;;;;;;;6.70;1.58;;;;;;;;;;4934301;29;20047;-82
2023/08/07 09:43:10;;;;;;;6.97;1.30;;;;;;;;;;4936907;29;20044;-83
2023/08/07 09:45:39;;;;;;;6.05;1.35;;;;;;;;;;4943681;29;20074;-83
2023/08/07 09:48:11;;;;;;;6.45;1.42;;;;;;;;;;4933971;29;20059;-85
2023/08/07 09:50:36;;;;;;;7.63;1.27;;;;;;;;;;4944376;29;20043;-85
2023/08/07 09:53:02;;;;;;;7.25;1.60;;;;;;;;;;4939660;29;20409;-85
2023/08/07 09:55:27;;;;;;;6.40;1.40;;;;;;;;;;4945564;29;20054;-83
2023/08/07 09:57:53;;;;;;;5.57;1.20;;;;;;;;;;4946706;29;20118;-84
2023/08/07 10:00:19;;;;;;;6.18;1.50;;;;;;;;;;4939293;29;20039;-82
2023/08/07 10:02:47;;;;;;;7.55;1.35;;;;;;;;;;4951635;29;20043;-83
2023/08/07 10:05:13;;;;;;;6.35;1.30;;;;;;;;;;4951172;29;20126;-83
2023/08/07 10:07:39;;;;;;;5.93;1.02;;;;;;;;;;4946284;29;20488;-85
2023/08/07 10:10:06;;;;;;;3.90;1.23;;;;;;;;;;4934515;29;20040;-82
2023/08/07 10:12:32;;;;;;;6.90;1.20;;;;;;;;;;4939237;29;20420;-86
2023/08/07 10:14:59;;;;;;;11.07;1.23;;;;;;;;;;4920941;29;20080;-82
2023/08/07 10:17:25;;;;;;;3.45;1.13;;;;;;;;;;4947087;29;20480;-82
2023/08/07 10:19:54;;;;;;;4.38;1.27;;;;;;;;;;4941881;29;20042;-83
2023/08/07 10:22:19;;;;;;;4.38;1.35;;;;;;;;;;4946182;29;20063;-82
2023/08/07 10:24:48;;;;;;;6.13;1.60;;;;;;;;;;4946185;29;20074;-83
2023/08/07 10:27:16;;;;;;;4.45;1.50;;;;;;;;;;4941527;29;20058;-82
2023/08/07 10:29:43;;;;;;;5.72;1.50;;;;;;;;;;4942335;28;20071;-83
2023/08/07 10:32:10;;;;;;;8.48;1.40;;;;;;;;;;4928730;29;20044;-84
2023/08/07 10:34:37;;;;;;;4.22;1.17;;;;;;;;;;4941938;29;20093;-81
2023/08/07 10:37:06;;;;;;;3.70;1.25;;;;;;;;;;4944035;29;20153;-82
2023/08/07 10:39:32;;;;;;;5.38;1.30;;;;;;;;;;4929705;29;20130;-83
2023/08/07 10:41:57;;;;;;;3.90;1.33;;;;;;;;;;4939927;29;20082;-84
2023/08/07 10:44:25;;;;;;;6.05;1.40;;;;;;;;;;4945129;29;20539;-83
2023/08/07 10:46:55;;;;;;;5.68;1.35;;;;;;;;;;4942364;29;20130;-84
2023/08/07 10:49:37;;;;;;;6.07;1.70;;;;;;;;;;4942774;29;20066;-84
2023/08/07 10:52:14;;;;;;;7.90;1.77;;;;;;;;;;4944043;29;20046;-83
2023/08/07 10:54:46;;;;;;;7.43;1.35;;;;;;;;;;4929445;29;20071;-84
2023/08/07 10:57:15;;;;;;;5.25;1.45;;;;;;;;;;4933408;29;20043;-84
2023/08/07 10:59:49;;;;;;;6.40;1.55;;;;;;;;;;4941169;29;20039;-85
2023/08/07 11:02:24;;;;;;;7.28;1.85;;;;;;;;;;4945476;29;20429;-84
2023/08/07 11:04:50;;;;;;;2.90;1.10;;;;;;;;;;4943261;29;20043;-84
2023/08/07 11:07:27;;;;;;;5.78;1.30;;;;;;;;;;4942906;29;20047;-86
2023/08/07 11:09:53;;;;;;;6.72;1.38;;;;;;;;;;4945801;29;20508;-85
2023/08/07 11:12:20;;;;;;;4.88;1.17;;;;;;;;;;4946276;29;20047;-84
2023/08/07 11:14:45;;;;;;;5.38;1.42;;;;;;;;;;4942684;29;20047;-84
2023/08/07 11:17:11;;;;;;;5.75;1.38;;;;;;;;;;4942913;29;20400;-85
2023/08/07 11:19:36;;;;;;;5.25;1.42;;;;;;;;;;4945993;29;20146;-83
2023/08/07 11:22:02;;;;;;;5.95;1.42;;;;;;;;;;4927267;29;20068;-84
2023/08/07 11:24:27;;;;;;;6.45;2.05;;;;;;;;;;4942245;29;20074;-83
2023/08/07 11:26:55;;;;;;;8.43;1.50;;;;;;;;;;4943326;29;20047;-84
2023/08/07 11:29:23;;;;;;;10.43;1.65;;;;;;;;;;4942043;29;20048;-82
2023/08/07 11:31:50;;;;;;;6.43;1.33;;;;;;;;;;4943837;29;20054;-85
2023/08/07 11:34:17;;;;;;;7.13;1.63;;;;;;;;;;4932577;29;20048;-84
2023/08/07 11:36:43;;;;;;;6.72;1.42;;;;;;;;;;4943062;29;20040;-85
2023/08/07 11:39:09;;;;;;;8.85;1.52;;;;;;;;;;4940543;29;20103;-85
2023/08/07 11:41:35;;;;;;;8.82;1.73;;;;;;;;;;4934869;29;20043;-84
2023/08/07 11:44:00;;;;;;;4.80;1.70;;;;;;;;;;4946245;29;20496;-84
2023/08/07 11:46:26;;;;;;;6.72;1.60;;;;;;;;;;4949344;29;20135;-86
2023/08/07 11:48:54;;;;;;;10.30;1.77;;;;;;;;;;4949259;29;20044;-86
2023/08/07 11:51:20;;;;;;;7.95;1.85;;;;;;;;;;4950409;29;20051;-86
2023/08/07 11:53:45;;;;;;;6.35;1.70;;;;;;;;;;4944619;29;20047;-87
2023/08/07 11:56:16;;;;;;;8.75;1.90;;;;;;;;;;4942058;29;20043;-85
2023/08/07 11:58:47;;;;;;;7.15;1.90;;;;;;;;;;4945208;29;20073;-84
2023/08/07 12:01:19;;;;;;;9.68;2.00;;;;;;;;;;4928406;29;20047;-84
2023/08/07 12:04:06;;;;;;;10.32;2.08;;;;;;;;;;4944740;29;20102;-88
2023/08/07 12:06:32;;;;;;;8.52;1.85;;;;;;;;;;4945674;29;20127;-87
2023/08/07 12:08:57;;;;;;;9.25;2.10;;;;;;;;;;4944660;29;20062;-87
2023/08/07 12:11:24;;;;;;;7.90;1.60;;;;;;;;;;4935251;29;20082;-87
2023/08/07 12:13:49;;;;;;;8.80;1.92;;;;;;;;;;4948517;29;20055;-85
2023/08/07 12:16:16;;;;;;;9.15;1.98;;;;;;;;;;4947740;29;20328;-89
2023/08/07 12:18:46;;;;;;;6.50;1.67;;;;;;;;;;4948187;29;20043;-87
2023/08/07 12:21:14;;;;;;;6.90;1.40;;;;;;;;;;4946889;29;20051;-86
2023/08/07 12:23:40;;;;;;;9.77;1.90;;;;;;;;;;4947924;29;20131;-86
2023/08/07 12:26:06;;;;;;;6.53;1.67;;;;;;;;;;4945943;29;20044;-89
2023/08/07 12:28:33;;;;;;;5.53;1.85;;;;;;;;;;4939274;29;20066;-87
2023/08/07 12:30:59;;;;;;;8.32;2.08;;;;;;;;;;4947929;29;20106;-88
2023/08/07 12:33:24;;;;;;;6.78;1.58;;;;;;;;;;4947230;29;20512;-88
2023/08/07 12:35:50;;;;;;;7.05;1.83;;;;;;;;;;4947668;29;20039;-86
2023/08/07 12:38:18;;;;;;;10.40;2.05;;;;;;;;;;4947801;29;20145;-86
2023/08/07 12:40:44;;;;;;;;;;;;;;;;;;4948064;29;20051;-88
2023/08/07 12:43:09;;;;;;;5.93;1.80;;;;;;;;;;4947920;29;20348;-88
2023/08/07 12:45:35;;;;;;;9.35;1.88;;;;;;;;;;4948495;29;20051;-88
2023/08/07 12:48:00;;;;;;;7.28;1.35;;;;;;;;;;4930098;29;20078;-88
2023/08/07 12:50:26;;;;;;;8.63;1.70;;;;;;;;;;4934994;29;20431;-86
2023/08/07 12:52:52;;;;;;;7.03;1.50;;;;;;;;;;4946015;28;20047;-87
2023/08/07 12:55:17;;;;;;;7.32;1.80;;;;;;;;;;4947044;29;20055;-87
2023/08/07 12:57:43;;;;;;;6.32;1.58;;;;;;;;;;4948156;29;20051;-89
2023/08/07 13:00:12;;;;;;;6.20;1.83;;;;;;;;;;4947694;29;20099;-89
2023/08/07 13:02:40;;;;;;;6.03;1.55;;;;;;;;;;4930873;29;20459;-88
2023/08/07 13:05:06;;;;;;;4.57;1.38;;;;;;;;;;4930558;29;20047;-88
2023/08/07 13:07:31;;;;;;;4.93;1.38;;;;;;;;;;4948409;29;20455;-89
2023/08/07 13:09:57;;;;;;;4.78;1.40;;;;;;;;;;4948636;29;20118;-90
2023/08/07 13:12:23;;;;;;;3.42;0.93;;;;;;;;;;4948563;29;20523;-89
2023/08/07 13:14:48;;;;;;;7.57;1.60;;;;;;;;;;4949474;29;20551;-90
2023/08/07 13:17:14;;;;;;;5.22;1.17;;;;;;;;;;4948408;29;20046;-90
2023/08/07 13:19:39;;;;;;;6.20;1.17;;;;;;;;;;4925549;29;20051;-89
2023/08/07 13:22:05;;;;;;;3.95;1.02;;;;;;;;;;4931389;29;20626;-88
2023/08/07 13:24:30;;;;;;;6.75;1.38;;;;;;;;;;4949184;29;20051;-89
2023/08/07 13:26:55;;;;;;;4.35;1.27;;;;;;;;;;4932328;29;20043;-88
2023/08/07 13:29:21;;;;;;;7.30;1.52;;;;;;;;;;4936165;29;20086;-89
2023/08/07 13:31:48;;;;;;;6.05;1.60;;;;;;;;;;4945365;29;20043;-89
2023/08/07 13:34:14;;;;;;;5.25;1.20;;;;;;;;;;4935678;29;20071;-89
2023/08/07 13:36:39;;;;;;;4.78;1.48;;;;;;;;;;4931649;29;20055;-90
2023/08/07 13:39:05;;;;;;;4.78;1.20;;;;;;;;;;4942531;29;20040;-90
2023/08/07 13:41:32;;;;;;;7.88;1.63;;;;;;;;;;4943830;29;20082;-89
2023/08/07 13:43:57;;;;;;;4.68;1.25;;;;;;;;;;4949582;29;20507;-91
2023/08/07 13:46:23;;;;;;;4.38;1.20;;;;;;;;;;4928605;29;21078;-90
2023/08/07 13:48:48;;;;;;;5.75;1.05;;;;;;;;;;4948193;29;20536;-90
2023/08/07 13:51:14;;;;;;;5.30;1.10;;;;;;;;;;4932608;29;20054;-91
2023/08/07 13:53:41;;;;;;;2.70;1.10;;;;;;;;;;4932466;29;20153;-90
2023/08/07 13:56:08;;;;;;;3.97;1.13;;;;;;;;;;4932564;29;20526;-89
2023/08/07 13:58:35;;;;;;;6.15;1.30;;;;;;;;;;4947598;29;20105;-87
2023/08/07 14:01:01;;;;;;;5.13;1.27;;;;;;;;;;4935012;29;20047;-89
2023/08/07 14:03:26;;;;;;;4.00;1.05;;;;;;;;;;4947939;28;20053;-89
2023/08/07 14:05:53;;;;;;;5.18;1.33;;;;;;;;;;4935343;29;20066;-89
2023/08/07 14:08:19;;;;;;;4.03;1.20;;;;;;;;;;4942629;28;20047;-89
2023/08/07 14:10:44;;;;;;;7.88;1.10;;;;;;;;;;4943844;28;20464;-89
2023/08/07 14:13:11;;;;;;;8.23;1.73;;;;;;;;;;4949042;29;20054;-89
2023/08/07 14:15:40;;;;;;;5.28;1.10;;;;;;;;;;4940561;28;20051;-91
2023/08/07 14:18:06;;;;;;;5.63;1.08;;;;;;;;;;4947601;28;20046;-90
2023/08/07 14:20:31;;;;;;;4.63;1.30;;;;;;;;;;4948021;29;20043;-90
2023/08/07 14:22:57;;;;;;;4.95;1.40;;;;;;;;;;4947683;29;20073;-89
2023/08/07 14:25:22;;;;;;;3.92;0.80;;;;;;;;;;4935557;28;20059;-89
2023/08/07 14:27:56;;;;;;;3.90;1.15;;;;;;;;;;4949061;29;20051;-88
2023/08/07 14:30:21;;;;;;;4.35;1.20;;;;;;;;;;4930691;28;20133;-91
2023/08/07 14:32:53;;;;;;;4.70;1.20;;;;;;;;;;4948839;28;20635;-90
2023/08/07 14:35:18;;;;;;;5.22;1.20;;;;;;;;;;4952717;29;20070;-88
2023/08/07 14:37:47;;;;;;;4.03;1.55;;;;;;;;;;4953814;29;20161;-90
2023/08/07 14:40:13;;;;;;;7.28;2.85;;;;;;;;;;4953287;29;20054;-91
2023/08/07 14:42:39;;;;;;;5.43;1.17;;;;;;;;;;4954297;29;20117;-90
2023/08/07 14:45:05;;;;;;;2.92;1.23;;;;;;;;;;4954002;29;20182;-90
2023/08/07 14:47:30;;;;;;;5.53;1.77;;;;;;;;;;4953909;29;20047;-89
2023/08/07 14:49:55;;;;;;;3.42;1.33;;;;;;;;;;4953362;29;20043;-90
2023/08/07 14:52:23;;;;;;;5.28;1.23;;;;;;;;;;4938813;29;20043;-96
2023/08/07 14:54:48;;;;;;;4.72;1.17;;;;;;;;;;4954818;29;20043;-89
2023/08/07 14:57:14;;;;;;;3.25;1.08;;;;;;;;;;4938334;29;20036;-93
2023/08/07 14:59:39;;;;;;;6.20;1.08;;;;;;;;;;4964693;29;20046;-94
2023/08/07 15:02:07;;;;;;;4.35;1.00;;;;;;;;;;4955386;29;20515;-93
2023/08/07 15:04:33;;;;;;;6.28;0.95;;;;;;;;;;4942004;29;20050;-92
2023/08/07 15:06:58;;;;;;;5.05;0.90;;;;;;;;;;4957139;29;20043;-96
2023/08/07 15:09:24;;;;;;;5.50;1.83;;;;;;;;;;4938847;29;20062;-91
2023/08/07 15:11:49;;;;;;;9.30;1.20;;;;;;;;;;4956272;29;20062;-91
2023/08/07 15:14:15;;;;;;;8.90;1.20;;;;;;;;;;4955917;29;20497;-96
2023/08/07 15:16:41;;;;;;;4.57;1.20;;;;;;;;;;4950561;29;20046;-89
2023/08/07 15:19:07;;;;;;;7.40;1.10;;;;;;;;;;4941387;29;20036;-92
2023/08/07 15:21:32;;;;;;;4.97;1.50;;;;;;;;;;4943344;29;20126;-91
2023/08/07 15:23:58;;;;;;;20.15;2.17;;;;;;;;;;4944936;29;20070;-88
2023/08/07 15:26:23;;;;;;;8.07;1.40;;;;;;;;;;4947175;29;20131;-89
2023/08/07 15:28:49;;;;;;;9.13;2.20;;;;;;;;;;4944934;29;20039;-89
2023/08/07 15:31:14;;;;;;;5.93;1.20;;;;;;;;;;4942007;29;20055;-91
2023/08/07 15:33:40;;;;;;;17.42;2.22;;;;;;;;;;4943456;29;20125;-86
2023/08/07 15:36:05;;;;;;;10.40;2.03;;;;;;;;;;4942475;29;20043;-89
2023/08/07 15:38:32;;;;;;;10.52;1.40;;;;;;;;;;4947268;29;20098;-93
2023/08/07 15:40:57;;;;;;;9.52;2.00;;;;;;;;;;4944923;29;20531;-92
2023/08/07 15:43:23;;;;;;;5.57;2.00;;;;;;;;;;4945196;29;20126;-94
2023/08/07 15:45:52;;;;;;;15.52;3.13;;;;;;;;;;4943535;29;20522;-92
2023/08/07 15:48:18;;;;;;;5.05;1.05;;;;;;;;;;4943853;29;20547;-92
2023/08/07 15:50:43;;;;;;;4.68;1.20;;;;;;;;;;4944209;29;20047;-92
2023/08/07 15:53:09;;;;;;;6.75;1.52;;;;;;;;;;4942233;29;20043;-91
2023/08/07 15:55:37;;;;;;;2.72;1.35;;;;;;;;;;4924649;29;20059;-90
2023/08/07 15:58:03;;;;;;;;;;;;;;;;;;4945258;29;20044;-91
2023/08/07 16:00:30;;;;;;;4.35;1.00;;;;;;;;;;4942334;29;20002;-84
2023/08/07 16:02:55;;;;;;;7.13;1.80;;;;;;;;;;4926712;29;20455;-88
2023/08/07 16:05:21;;;;;;;2.47;0.90;;;;;;;;;;4951033;29;20051;-89
2023/08/07 16:07:49;;;;;;;3.38;1.25;;;;;;;;;;4942567;29;20039;-86
2023/08/07 16:10:15;;;;;;;3.42;0.85;;;;;;;;;;4942542;29;20047;-87
2023/08/07 16:12:41;;;;;;;7.63;1.05;;;;;;;;;;4942469;29;20047;-88
2023/08/07 16:15:06;;;;;;;5.10;1.10;;;;;;;;;;4936826;29;20051;-87
2023/08/07 16:17:32;;;;;;;3.15;1.02;;;;;;;;;;4935641;29;20047;-88
2023/08/07 16:19:57;;;;;;;1.98;0.88;;;;;;;;;;4936074;29;20046;-86
2023/08/07 16:22:23;;;;;;;5.53;1.13;;;;;;;;;;4943847;28;20066;-88
2023/08/07 16:24:48;;;;;;;3.95;1.00;;;;;;;;;;4939981;28;20879;-86
2023/08/07 16:27:13;;;;;;;5.45;1.10;;;;;;;;;;4946010;28;20058;-87
2023/08/07 16:29:39;;;;;;;7.28;1.00;;;;;;;;;;4950208;28;20115;-88
2023/08/07 16:32:06;;;;;;;9.98;1.17;;;;;;;;;;4933110;29;20106;-87
2023/08/07 16:34:32;;;;;;;3.60;0.90;;;;;;;;;;4949566;29;20614;-87
2023/08/07 16:36:57;;;;;;;3.65;0.93;;;;;;;;;;4920457;29;20055;-83
2023/08/07 16:39:23;;;;;;;3.33;1.10;;;;;;;;;;4944408;29;20559;-85
2023/08/07 16:41:48;;;;;;;4.75;1.00;;;;;;;;;;4947376;28;20043;-83
2023/08/07 16:44:14;;;;;;;6.88;1.15;;;;;;;;;;4945891;29;20130;-88
2023/08/07 16:46:39;;;;;;;4.18;1.00;;;;;;;;;;4944159;29;20054;-89
2023/08/07 16:49:04;;;;;;;5.38;1.05;;;;;;;;;;4935994;29;20042;-89
2023/08/07 16:51:32;;;;;;;3.58;1.17;;;;;;;;;;4926582;29;20412;-88
2023/08/07 16:53:58;;;;;;;4.47;1.10;;;;;;;;;;4942165;29;20052;-88
2023/08/07 16:56:23;;;;;;;3.58;0.95;;;;;;;;;;4946787;28;20136;-89
2023/08/07 16:58:50;;;;;;;2.80;0.82;;;;;;;;;;4945946;28;20122;-90
2023/08/07 17:01:16;;;;;;;4.25;1.05;;;;;;;;;;4944556;29;20161;-89
2023/08/07 17:03:41;;;;;;;3.05;1.02;;;;;;;;;;4938016;29;20047;-87
2023/08/07 17:06:07;;;;;;;3.72;0.80;;;;;;;;;;4947680;29;20051;-90
2023/08/07 17:08:32;;;;;;;3.17;1.15;;;;;;;;;;4935920;29;20126;-90
2023/08/07 17:10:58;;;;;;;2.92;0.98;;;;;;;;;;4931543;29;20070;-91
2023/08/07 17:13:51;;;;;;;5.50;1.13;;;;;;;;;;4943284;29;20043;-88
2023/08/07 17:16:30;;;;;;;5.65;1.05;;;;;;;;;;4918803;29;20056;-89
2023/08/07 17:18:56;;;;;;;2.72;0.70;;;;;;;;;;4924883;28;20168;-89
2023/08/07 17:21:25;;;;;;;2.88;0.77;;;;;;;;;;4930062;29;20142;-87
2023/08/07 17:24:50;;;;;;;5.30;1.15;;;;;;;;;;4925141;29;20055;-90
2023/08/07 17:28:02;;;;;;;3.08;1.05;;;;;;;;;;4800209;29;20044;-90
2023/08/07 17:31:44;;;;;;;3.75;1.10;;;;;;;;;;4794727;29;20083;-90
2023/08/07 17:34:15;;;;;;;5.38;1.30;;;;;;;;;;4828555;29;20198;-90
2023/08/07 17:40:29;;;;;;;3.55;1.05;;;;;;;;;;4759196;29;20095;-88
2023/08/07 17:42:57;;;;;;;6.40;1.10;;;;;;;;;;4810299;29;20126;-87
2023/08/07 17:45:23;;;;;;;6.28;1.10;;;;;;;;;;4829766;29;20054;-87
2023/08/07 17:47:49;;;;;;;4.53;1.23;;;;;;;;;;4817834;29;20055;-89
2023/08/07 17:50:14;;;;;;;5.07;1.02;;;;;;;;;;4814539;29;20054;-90
2023/08/07 17:52:41;;;;;;;4.97;1.02;;;;;;;;;;4829422;29;20061;-90
2023/08/07 17:55:07;;;;;;;5.68;1.33;;;;;;;;;;4832273;29;20216;-87
2023/08/07 17:57:32;;;;;;;2.47;0.90;;;;;;;;;;4832135;29;20060;-88
2023/08/07 17:59:58;;;;;;;4.57;1.17;;;;;;;;;;4831860;29;20125;-88
2023/08/07 18:02:24;;;;;;;4.15;1.30;;;;;;;;;;4942298;28;20077;-89
2023/08/07 18:04:50;;;;;;;6.43;1.45;;;;;;;;;;4946075;28;20043;-90
2023/08/07 18:07:15;;;;;;;5.07;1.30;;;;;;;;;;4948103;29;20503;-89
2023/08/07 18:09:41;;;;;;;7.85;1.92;;;;;;;;;;4944762;29;20603;-89
2023/08/07 18:12:07;;;;;;;6.13;1.48;;;;;;;;;;4936803;28;20057;-90
2023/08/07 18:14:33;;;;;;;3.97;1.20;;;;;;;;;;4928678;29;20058;-90
2023/08/07 18:16:59;;;;;;;5.72;1.38;;;;;;;;;;4944331;28;20054;-89
2023/08/07 18:19:24;;;;;;;7.35;1.40;;;;;;;;;;4941614;28;20142;-90
2023/08/07 18:21:50;;;;;;;5.60;1.35;;;;;;;;;;4942372;29;20094;-90
2023/08/07 18:24:16;;;;;;;4.03;1.42;;;;;;;;;;4930358;28;20050;-89
2023/08/07 18:26:43;;;;;;;5.45;1.60;;;;;;;;;;4935432;29;20048;-91
2023/08/07 18:29:08;;;;;;;6.80;1.58;;;;;;;;;;4941270;29;20070;-90
2023/08/07 18:31:50;;;;;;;5.65;1.90;;;;;;;;;;4938374;29;20121;-89
2023/08/07 18:34:16;;;;;;;4.85;1.70;;;;;;;;;;4928510;29;20151;-88
2023/08/07 18:37:02;;;;;;;6.03;1.63;;;;;;;;;;4938301;29;20047;-89
2023/08/07 18:39:28;;;;;;;6.30;1.75;;;;;;;;;;4879271;29;20056;-89
2023/08/07 18:41:54;;;;;;;6.35;1.80;;;;;;;;;;4884916;29;20048;-89
2023/08/07 18:44:19;;;;;;;10.80;2.10;;;;;;;;;;4887367;29;20108;-89
2023/08/07 18:46:45;;;;;;;5.25;1.77;;;;;;;;;;4870277;29;20115;-87
2023/08/07 18:49:10;;;;;;;6.50;1.60;;;;;;;;;;4885118;29;20580;-89
2023/08/07 18:51:35;;;;;;;7.30;2.05;;;;;;;;;;4885914;29;20458;-86
2023/08/07 18:54:01;;;;;;;7.50;1.98;;;;;;;;;;4887434;29;20045;-87
2023/08/07 18:56:28;;;;;;;5.65;1.75;;;;;;;;;;4884952;29;20267;-87
2023/08/07 18:58:53;;;;;;;7.93;1.80;;;;;;;;;;4884407;29;20053;-87
2023/08/07 19:01:19;;;;;;;5.35;1.60;;;;;;;;;;4877165;29;20506;-86
2023/08/07 19:03:44;;;;;;;5.90;1.63;;;;;;;;;;4886762;29;20053;-86
2023/08/07 19:06:10;;;;;;;6.05;1.70;;;;;;;;;;4884993;29;20056;-86
2023/08/07 19:08:37;;;;;;;6.72;1.73;;;;;;;;;;4886499;29;20679;-87
2023/08/07 19:11:03;;;;;;;6.53;1.58;;;;;;;;;;4870556;29;20048;-86
2023/08/07 19:13:29;;;;;;;5.07;1.40;;;;;;;;;;4885735;29;20059;-85
2023/08/07 19:15:55;;;;;;;4.63;1.17;;;;;;;;;;4917347;28;20456;-85
2023/08/07 19:18:21;;;;;;;5.35;1.30;;;;;;;;;;4928374;28;20101;-90
2023/08/07 19:20:47;;;;;;;5.63;1.60;;;;;;;;;;4940708;28;20056;-88
2023/08/07 19:23:14;;;;;;;5.70;1.52;;;;;;;;;;4944508;28;20043;-89
2023/08/07 19:25:40;;;;;;;6.72;1.60;;;;;;;;;;4943124;28;20514;-89
2023/08/07 19:28:07;;;;;;;7.03;1.45;;;;;;;;;;4935624;29;20052;-87
2023/08/07 19:30:33;;;;;;;6.97;1.55;;;;;;;;;;4924572;29;20102;-88
2023/08/07 19:32:58;;;;;;;8.45;1.83;;;;;;;;;;4932099;29;20051;-86
2023/08/07 19:35:24;;;;;;;5.40;1.73;;;;;;;;;;4938980;28;20051;-88
2023/08/07 19:37:49;;;;;;;6.95;1.98;;;;;;;;;;4944309;28;20066;-89
2023/08/07 19:40:18;;;;;;;5.10;1.70;;;;;;;;;;4925613;29;20592;-89
2023/08/07 19:42:44;;;;;;;6.03;1.90;;;;;;;;;;4942864;28;20070;-89
2023/08/07 19:45:10;;;;;;;6.95;1.67;;;;;;;;;;4945981;28;20500;-88
2023/08/07 19:47:35;;;;;;;6.93;2.15;;;;;;;;;;4945919;29;20043;-88
2023/08/07 19:50:01;;;;;;;7.13;2.13;;;;;;;;;;4948033;28;20890;-89
2023/08/07 19:52:27;;;;;;;7.45;1.90;;;;;;;;;;4946743;28;20047;-88
2023/08/07 19:54:54;;;;;;;5.35;2.05;;;;;;;;;;4945900;28;20126;-86
2023/08/07 19:57:20;;;;;;;6.05;1.77;;;;;;;;;;4932351;28;20133;-86
2023/08/07 19:59:45;;;;;;;5.43;1.80;;;;;;;;;;4940509;28;20123;-89
2023/08/07 20:02:11;;;;;;;6.35;1.77;;;;;;;;;;4947448;28;20050;-87
2023/08/07 20:04:36;;;;;;;5.38;2.00;;;;;;;;;;4938620;28;20537;-89
2023/08/07 20:07:04;;;;;;;10.05;2.00;;;;;;;;;;4933040;28;20047;-88
2023/08/07 20:09:31;;;;;;;8.40;1.80;;;;;;;;;;4948450;28;20059;-87
2023/08/07 20:11:57;;;;;;;6.90;1.73;;;;;;;;;;4942856;29;20047;-87
2023/08/07 20:14:23;;;;;;;5.00;1.67;;;;;;;;;;4931293;29;20337;-88
2023/08/07 20:16:49;;;;;;;5.78;1.80;;;;;;;;;;4930623;29;20086;-87
2023/08/07 20:19:14;;;;;;;7.18;2.10;;;;;;;;;;4940039;28;20050;-88
2023/08/07 20:21:40;;;;;;;6.38;1.90;;;;;;;;;;4930581;29;20098;-89
2023/08/07 20:24:06;;;;;;;8.48;2.05;;;;;;;;;;4937432;29;20053;-88
2023/08/07 20:26:33;;;;;;;6.75;1.83;;;;;;;;;;4927976;29;20461;-89
2023/08/07 20:28:58;;;;;;;5.20;1.75;;;;;;;;;;4950073;28;20035;-87
2023/08/07 20:31:24;;;;;;;5.75;1.65;;;;;;;;;;4943526;28;20047;-88
2023/08/07 20:33:49;;;;;;;4.75;1.98;;;;;;;;;;4948200;29;20094;-88
2023/08/07 20:36:15;;;;;;;8.98;1.67;;;;;;;;;;4926607;29;20472;-87
2023/08/07 20:38:41;;;;;;;4.70;1.70;;;;;;;;;;4936536;29;20162;-88
2023/08/07 20:41:06;;;;;;;6.15;1.67;;;;;;;;;;4932596;29;20135;-88